sensor_id;sensor_type;location;lat;lon;timestamp;P1;durP1;ratioP1;P2;durP2;ratioP2
37389;SDS011;39679;49.000;8.390;2022-10-29T00:02:02;4.38;;;3.50;;
37389;SDS011;39679;49.000;8.390;2022-10-29T00:07:03;7.07;;;4.33;;
37389;SDS011;39679;49.000;8.390;2022-10-29T00:12:03;6.13;;;4.03;;
37389;SDS011;39679;49.000;8.390;2022-10-29T00:17:04;6.95;;;4.07;;
37389;SDS011;39679;49.000;8.390;2022-10-29T00:22:04;5.70;;;4.00;;
37389;SDS011;39679;49.000;8.390;2022-10-29T00:27:04;6.07;;;4.10;;
37389;SDS011;39679;49.000;8.390;2022-10-29T00:32:05;6.33;;;4.00;;
37389;SDS011;39679;49.000;8.390;2022-10-29T00:37:05;5.60;;;4.00;;
37389;SDS011;39679;49.000;8.390;2022-10-29T00:42:11;7.00;;;3.93;;
37389;SDS011;39679;49.000;8.390;2022-10-29T00:47:17;5.25;;;3.65;;
37389;SDS011;39679;49.000;8.390;2022-10-29T00:52:20;4.80;;;3.47;;
37389;SDS011;39679;49.000;8.390;2022-10-29T00:57:25;5.63;;;3.58;;
37389;SDS011;39679;49.000;8.390;2022-10-29T01:02:35;5.45;;;3.95;;
37389;SDS011;39679;49.000;8.390;2022-10-29T01:07:37;4.80;;;3.55;;
37389;SDS011;39679;49.000;8.390;2022-10-29T01:44:06;5.95;;;3.70;;
37389;SDS011;39679;49.000;8.390;2022-10-29T01:49:16;5.93;;;3.38;;
37389;SDS011;39679;49.000;8.390;2022-10-29T01:54:20;4.55;;;3.38;;
37389;SDS011;39679;49.000;8.390;2022-10-29T01:59:21;5.30;;;3.30;;
37389;SDS011;39679;49.000;8.390;2022-10-29T02:04:29;4.65;;;3.35;;
37389;SDS011;39679;49.000;8.390;2022-10-29T02:09:53;5.82;;;3.30;;
37389;SDS011;39679;49.000;8.390;2022-10-29T02:20:10;4.82;;;3.45;;
37389;SDS011;39679;49.000;8.390;2022-10-29T02:25:12;5.35;;;3.15;;
37389;SDS011;39679;49.000;8.390;2022-10-29T02:30:13;4.00;;;3.08;;
37389;SDS011;39679;49.000;8.390;2022-10-29T02:35:14;5.18;;;3.28;;
37389;SDS011;39679;49.000;8.390;2022-10-29T02:40:14;4.63;;;3.38;;
37389;SDS011;39679;49.000;8.390;2022-10-29T02:45:14;4.95;;;3.20;;
37389;SDS011;39679;49.000;8.390;2022-10-29T02:50:15;4.93;;;3.55;;
37389;SDS011;39679;49.000;8.390;2022-10-29T02:55:15;5.70;;;3.67;;
37389;SDS011;39679;49.000;8.390;2022-10-29T03:00:15;4.57;;;3.07;;
37389;SDS011;39679;49.000;8.390;2022-10-29T03:05:16;3.97;;;3.00;;
37389;SDS011;39679;49.000;8.390;2022-10-29T03:10:16;4.72;;;3.28;;
37389;SDS011;39679;49.000;8.390;2022-10-29T03:15:17;4.17;;;3.00;;
37389;SDS011;39679;49.000;8.390;2022-10-29T03:20:17;4.83;;;3.20;;
37389;SDS011;39679;49.000;8.390;2022-10-29T03:25:17;3.83;;;2.80;;
37389;SDS011;39679;49.000;8.390;2022-10-29T03:30:18;3.53;;;2.87;;
37389;SDS011;39679;49.000;8.390;2022-10-29T03:35:18;5.35;;;3.05;;
37389;SDS011;39679;49.000;8.390;2022-10-29T03:40:18;5.17;;;3.47;;
37389;SDS011;39679;49.000;8.390;2022-10-29T03:45:19;5.40;;;2.65;;
37389;SDS011;39679;49.000;8.390;2022-10-29T03:50:19;4.17;;;2.70;;
37389;SDS011;39679;49.000;8.390;2022-10-29T03:55:19;4.50;;;3.20;;
37389;SDS011;39679;49.000;8.390;2022-10-29T04:00:20;4.03;;;2.70;;
37389;SDS011;39679;49.000;8.390;2022-10-29T04:05:20;4.47;;;3.40;;
37389;SDS011;39679;49.000;8.390;2022-10-29T04:10:21;3.05;;;2.47;;
37389;SDS011;39679;49.000;8.390;2022-10-29T04:15:21;3.60;;;2.70;;
37389;SDS011;39679;49.000;8.390;2022-10-29T04:20:21;3.72;;;2.65;;
37389;SDS011;39679;49.000;8.390;2022-10-29T04:25:22;5.15;;;3.10;;
37389;SDS011;39679;49.000;8.390;2022-10-29T04:30:22;3.80;;;2.97;;
37389;SDS011;39679;49.000;8.390;2022-10-29T04:35:24;3.05;;;2.38;;
37389;SDS011;39679;49.000;8.390;2022-10-29T04:40:25;3.40;;;2.67;;
37389;SDS011;39679;49.000;8.390;2022-10-29T04:45:25;3.72;;;2.78;;
37389;SDS011;39679;49.000;8.390;2022-10-29T04:50:26;3.67;;;2.55;;
37389;SDS011;39679;49.000;8.390;2022-10-29T04:55:27;5.40;;;2.72;;
37389;SDS011;39679;49.000;8.390;2022-10-29T05:00:27;3.60;;;2.58;;
37389;SDS011;39679;49.000;8.390;2022-10-29T05:05:28;3.83;;;2.87;;
37389;SDS011;39679;49.000;8.390;2022-10-29T05:10:29;4.38;;;3.20;;
37389;SDS011;39679;49.000;8.390;2022-10-29T05:15:31;4.38;;;3.15;;
37389;SDS011;39679;49.000;8.390;2022-10-29T05:20:32;4.38;;;3.25;;
37389;SDS011;39679;49.000;8.390;2022-10-29T05:25:33;5.43;;;2.83;;
37389;SDS011;39679;49.000;8.390;2022-10-29T05:30:35;4.20;;;3.10;;
37389;SDS011;39679;49.000;8.390;2022-10-29T05:35:36;3.50;;;2.22;;
37389;SDS011;39679;49.000;8.390;2022-10-29T05:40:37;3.80;;;2.67;;
37389;SDS011;39679;49.000;8.390;2022-10-29T05:45:38;3.60;;;2.45;;
37389;SDS011;39679;49.000;8.390;2022-10-29T05:50:38;4.00;;;2.50;;
37389;SDS011;39679;49.000;8.390;2022-10-29T05:55:39;3.42;;;2.55;;
37389;SDS011;39679;49.000;8.390;2022-10-29T06:00:41;3.60;;;2.58;;
37389;SDS011;39679;49.000;8.390;2022-10-29T06:05:42;4.15;;;2.85;;
37389;SDS011;39679;49.000;8.390;2022-10-29T06:10:43;3.92;;;2.47;;
37389;SDS011;39679;49.000;8.390;2022-10-29T06:15:44;3.40;;;2.28;;
37389;SDS011;39679;49.000;8.390;2022-10-29T06:20:46;3.95;;;2.80;;
37389;SDS011;39679;49.000;8.390;2022-10-29T06:25:47;4.67;;;2.73;;
37389;SDS011;39679;49.000;8.390;2022-10-29T06:30:48;2.97;;;2.27;;
37389;SDS011;39679;49.000;8.390;2022-10-29T06:35:49;3.60;;;2.28;;
37389;SDS011;39679;49.000;8.390;2022-10-29T06:40:50;3.67;;;2.60;;
37389;SDS011;39679;49.000;8.390;2022-10-29T06:45:51;3.65;;;2.75;;
37389;SDS011;39679;49.000;8.390;2022-10-29T06:50:51;4.57;;;2.60;;
37389;SDS011;39679;49.000;8.390;2022-10-29T06:55:52;5.13;;;2.40;;
37389;SDS011;39679;49.000;8.390;2022-10-29T07:00:52;4.07;;;2.72;;
37389;SDS011;39679;49.000;8.390;2022-10-29T07:05:56;3.78;;;2.40;;
37389;SDS011;39679;49.000;8.390;2022-10-29T07:15:58;3.15;;;2.58;;
37389;SDS011;39679;49.000;8.390;2022-10-29T07:21:00;5.35;;;2.80;;
37389;SDS011;39679;49.000;8.390;2022-10-29T07:26:01;3.70;;;2.65;;
37389;SDS011;39679;49.000;8.390;2022-10-29T07:31:02;3.45;;;2.40;;
37389;SDS011;39679;49.000;8.390;2022-10-29T07:36:02;3.55;;;2.60;;
37389;SDS011;39679;49.000;8.390;2022-10-29T07:41:05;4.40;;;2.42;;
37389;SDS011;39679;49.000;8.390;2022-10-29T07:46:05;3.38;;;2.28;;
37389;SDS011;39679;49.000;8.390;2022-10-29T07:51:06;3.45;;;2.42;;
37389;SDS011;39679;49.000;8.390;2022-10-29T07:56:09;3.50;;;2.28;;
37389;SDS011;39679;49.000;8.390;2022-10-29T08:01:09;3.20;;;2.58;;
37389;SDS011;39679;49.000;8.390;2022-10-29T08:06:10;3.72;;;2.00;;
37389;SDS011;39679;49.000;8.390;2022-10-29T08:11:10;3.05;;;2.40;;
37389;SDS011;39679;49.000;8.390;2022-10-29T08:16:11;3.47;;;2.30;;
37389;SDS011;39679;49.000;8.390;2022-10-29T08:21:11;2.90;;;2.13;;
37389;SDS011;39679;49.000;8.390;2022-10-29T08:26:11;3.17;;;2.10;;
37389;SDS011;39679;49.000;8.390;2022-10-29T08:31:11;4.87;;;2.43;;
37389;SDS011;39679;49.000;8.390;2022-10-29T08:36:12;3.17;;;2.03;;
37389;SDS011;39679;49.000;8.390;2022-10-29T08:46:53;3.28;;;2.30;;
37389;SDS011;39679;49.000;8.390;2022-10-29T08:52:06;3.65;;;2.25;;
37389;SDS011;39679;49.000;8.390;2022-10-29T08:57:18;2.90;;;2.28;;
37389;SDS011;39679;49.000;8.390;2022-10-29T09:02:22;3.00;;;2.03;;
37389;SDS011;39679;49.000;8.390;2022-10-29T09:39:49;4.05;;;2.20;;
37389;SDS011;39679;49.000;8.390;2022-10-29T09:44:56;3.05;;;2.40;;
37389;SDS011;39679;49.000;8.390;2022-10-29T09:55:10;3.92;;;2.40;;
37389;SDS011;39679;49.000;8.390;2022-10-29T10:00:19;6.28;;;2.83;;
37389;SDS011;39679;49.000;8.390;2022-10-29T10:05:29;8.70;;;3.42;;
37389;SDS011;39679;49.000;8.390;2022-10-29T10:10:35;8.50;;;3.45;;
37389;SDS011;39679;49.000;8.390;2022-10-29T10:15:48;9.70;;;2.90;;
37389;SDS011;39679;49.000;8.390;2022-10-29T10:21:12;9.38;;;3.55;;
37389;SDS011;39679;49.000;8.390;2022-10-29T10:31:34;6.53;;;2.97;;
37389;SDS011;39679;49.000;8.390;2022-10-29T10:36:36;5.50;;;3.13;;
37389;SDS011;39679;49.000;8.390;2022-10-29T10:41:39;7.88;;;3.22;;
37389;SDS011;39679;49.000;8.390;2022-10-29T10:46:42;11.38;;;3.25;;
37389;SDS011;39679;49.000;8.390;2022-10-29T10:51:51;17.08;;;5.53;;
37389;SDS011;39679;49.000;8.390;2022-10-29T10:56:57;18.40;;;5.00;;
37389;SDS011;39679;49.000;8.390;2022-10-29T11:01:59;19.85;;;5.35;;
37389;SDS011;39679;49.000;8.390;2022-10-29T11:07:02;11.77;;;5.40;;
37389;SDS011;39679;49.000;8.390;2022-10-29T11:12:11;9.60;;;4.78;;
37389;SDS011;39679;49.000;8.390;2022-10-29T11:17:29;16.95;;;5.35;;
37389;SDS011;39679;49.000;8.390;2022-10-29T11:22:42;13.68;;;4.75;;
37389;SDS011;39679;49.000;8.390;2022-10-29T11:28:13;11.50;;;4.40;;
37389;SDS011;39679;49.000;8.390;2022-10-29T11:38:40;13.90;;;4.55;;
37389;SDS011;39679;49.000;8.390;2022-10-29T11:43:47;11.02;;;4.72;;
37389;SDS011;39679;49.000;8.390;2022-10-29T11:53:58;11.77;;;4.20;;
37389;SDS011;39679;49.000;8.390;2022-10-29T12:04:23;11.80;;;3.88;;
37389;SDS011;39679;49.000;8.390;2022-10-29T12:14:51;9.20;;;4.15;;
37389;SDS011;39679;49.000;8.390;2022-10-29T12:20:02;8.60;;;3.63;;
37389;SDS011;39679;49.000;8.390;2022-10-29T12:36:07;8.13;;;3.95;;
37389;SDS011;39679;49.000;8.390;2022-10-29T12:41:21;6.68;;;3.70;;
37389;SDS011;39679;49.000;8.390;2022-10-29T12:46:27;7.97;;;3.55;;
37389;SDS011;39679;49.000;8.390;2022-10-29T13:02:17;7.85;;;3.70;;
37389;SDS011;39679;49.000;8.390;2022-10-29T13:07:36;8.75;;;3.50;;
37389;SDS011;39679;49.000;8.390;2022-10-29T13:18:07;6.88;;;3.33;;
37389;SDS011;39679;49.000;8.390;2022-10-29T13:43:39;6.00;;;3.42;;
37389;SDS011;39679;49.000;8.390;2022-10-29T13:48:42;5.88;;;3.50;;
37389;SDS011;39679;49.000;8.390;2022-10-29T13:53:51;7.30;;;3.45;;
37389;SDS011;39679;49.000;8.390;2022-10-29T13:58:56;6.15;;;3.13;;
37389;SDS011;39679;49.000;8.390;2022-10-29T14:04:02;8.30;;;3.30;;
37389;SDS011;39679;49.000;8.390;2022-10-29T14:09:22;6.03;;;3.42;;
37389;SDS011;39679;49.000;8.390;2022-10-29T14:14:41;6.13;;;3.38;;
37389;SDS011;39679;49.000;8.390;2022-10-29T14:19:58;8.20;;;3.65;;
37389;SDS011;39679;49.000;8.390;2022-10-29T14:24:59;6.50;;;3.33;;
37389;SDS011;39679;49.000;8.390;2022-10-29T14:30:10;6.93;;;3.10;;
37389;SDS011;39679;49.000;8.390;2022-10-29T14:35:15;5.55;;;3.05;;
37389;SDS011;39679;49.000;8.390;2022-10-29T14:40:17;6.13;;;2.92;;
37389;SDS011;39679;49.000;8.390;2022-10-29T14:45:22;5.35;;;3.33;;
37389;SDS011;39679;49.000;8.390;2022-10-29T14:50:25;5.22;;;3.15;;
37389;SDS011;39679;49.000;8.390;2022-10-29T15:00:30;5.97;;;3.28;;
37389;SDS011;39679;49.000;8.390;2022-10-29T15:05:33;7.10;;;3.28;;
37389;SDS011;39679;49.000;8.390;2022-10-29T15:15:50;5.72;;;3.25;;
37389;SDS011;39679;49.000;8.390;2022-10-29T15:20:58;7.55;;;3.17;;
37389;SDS011;39679;49.000;8.390;2022-10-29T15:25:59;8.40;;;3.40;;
37389;SDS011;39679;49.000;8.390;2022-10-29T15:31:02;8.07;;;3.47;;
37389;SDS011;39679;49.000;8.390;2022-10-29T15:36:03;6.70;;;3.15;;
37389;SDS011;39679;49.000;8.390;2022-10-29T15:46:07;8.38;;;3.67;;
37389;SDS011;39679;49.000;8.390;2022-10-29T15:51:08;6.28;;;3.35;;
37389;SDS011;39679;49.000;8.390;2022-10-29T15:56:09;7.05;;;3.83;;
37389;SDS011;39679;49.000;8.390;2022-10-29T16:01:12;5.28;;;3.08;;
37389;SDS011;39679;49.000;8.390;2022-10-29T16:06:14;7.68;;;3.90;;
37389;SDS011;39679;49.000;8.390;2022-10-29T16:11:16;8.13;;;3.72;;
37389;SDS011;39679;49.000;8.390;2022-10-29T16:16:19;7.20;;;3.50;;
37389;SDS011;39679;49.000;8.390;2022-10-29T16:21:22;9.80;;;4.40;;
37389;SDS011;39679;49.000;8.390;2022-10-29T16:26:24;6.85;;;4.07;;
37389;SDS011;39679;49.000;8.390;2022-10-29T16:31:26;7.43;;;4.03;;
37389;SDS011;39679;49.000;8.390;2022-10-29T16:36:27;8.32;;;4.30;;
37389;SDS011;39679;49.000;8.390;2022-10-29T16:41:28;9.40;;;4.07;;
37389;SDS011;39679;49.000;8.390;2022-10-29T16:46:29;8.68;;;4.50;;
37389;SDS011;39679;49.000;8.390;2022-10-29T16:51:30;7.43;;;4.60;;
37389;SDS011;39679;49.000;8.390;2022-10-29T16:56:30;11.13;;;4.63;;
37389;SDS011;39679;49.000;8.390;2022-10-29T17:01:30;9.67;;;3.80;;
37389;SDS011;39679;49.000;8.390;2022-10-29T17:06:31;10.25;;;4.47;;
37389;SDS011;39679;49.000;8.390;2022-10-29T17:11:31;6.95;;;4.20;;
37389;SDS011;39679;49.000;8.390;2022-10-29T17:16:31;11.10;;;4.80;;
37389;SDS011;39679;49.000;8.390;2022-10-29T17:21:32;9.00;;;4.72;;
37389;SDS011;39679;49.000;8.390;2022-10-29T17:26:32;7.55;;;4.70;;
37389;SDS011;39679;49.000;8.390;2022-10-29T17:31:32;9.83;;;5.27;;
37389;SDS011;39679;49.000;8.390;2022-10-29T17:36:36;9.90;;;5.50;;
37389;SDS011;39679;49.000;8.390;2022-10-29T17:41:36;10.32;;;5.40;;
37389;SDS011;39679;49.000;8.390;2022-10-29T17:46:37;11.38;;;5.80;;
37389;SDS011;39679;49.000;8.390;2022-10-29T17:51:37;10.25;;;6.15;;
37389;SDS011;39679;49.000;8.390;2022-10-29T17:56:37;15.20;;;6.60;;
37389;SDS011;39679;49.000;8.390;2022-10-29T18:01:38;15.10;;;7.37;;
37389;SDS011;39679;49.000;8.390;2022-10-29T18:06:38;15.40;;;7.60;;
37389;SDS011;39679;49.000;8.390;2022-10-29T18:11:38;16.63;;;7.60;;
37389;SDS011;39679;49.000;8.390;2022-10-29T18:16:39;14.15;;;7.78;;
37389;SDS011;39679;49.000;8.390;2022-10-29T18:21:39;12.67;;;7.33;;
37389;SDS011;39679;49.000;8.390;2022-10-29T18:26:39;11.97;;;6.80;;
37389;SDS011;39679;49.000;8.390;2022-10-29T18:31:39;15.10;;;7.43;;
37389;SDS011;39679;49.000;8.390;2022-10-29T18:36:40;15.37;;;7.50;;
37389;SDS011;39679;49.000;8.390;2022-10-29T18:41:40;15.35;;;7.20;;
37389;SDS011;39679;49.000;8.390;2022-10-29T18:46:41;13.80;;;7.68;;
37389;SDS011;39679;49.000;8.390;2022-10-29T18:51:41;11.52;;;7.32;;
37389;SDS011;39679;49.000;8.390;2022-10-29T18:56:41;14.70;;;7.93;;
37389;SDS011;39679;49.000;8.390;2022-10-29T19:01:42;14.53;;;8.33;;
37389;SDS011;39679;49.000;8.390;2022-10-29T19:06:42;12.98;;;8.18;;
37389;SDS011;39679;49.000;8.390;2022-10-29T19:11:42;12.90;;;8.73;;
37389;SDS011;39679;49.000;8.390;2022-10-29T19:16:43;15.48;;;9.23;;
37389;SDS011;39679;49.000;8.390;2022-10-29T19:21:43;14.95;;;9.35;;
37389;SDS011;39679;49.000;8.390;2022-10-29T19:26:43;11.90;;;8.02;;
37389;SDS011;39679;49.000;8.390;2022-10-29T19:31:44;13.55;;;8.68;;
37389;SDS011;39679;49.000;8.390;2022-10-29T19:36:44;13.20;;;8.60;;
37389;SDS011;39679;49.000;8.390;2022-10-29T19:41:45;17.17;;;10.93;;
37389;SDS011;39679;49.000;8.390;2022-10-29T19:46:45;16.30;;;9.47;;
37389;SDS011;39679;49.000;8.390;2022-10-29T19:51:45;16.20;;;9.40;;
37389;SDS011;39679;49.000;8.390;2022-10-29T19:56:46;24.20;;;15.65;;
37389;SDS011;39679;49.000;8.390;2022-10-29T20:01:46;15.02;;;10.88;;
37389;SDS011;39679;49.000;8.390;2022-10-29T20:06:46;18.40;;;11.57;;
37389;SDS011;39679;49.000;8.390;2022-10-29T20:11:47;19.90;;;11.95;;
37389;SDS011;39679;49.000;8.390;2022-10-29T20:16:47;15.88;;;11.02;;
37389;SDS011;39679;49.000;8.390;2022-10-29T20:21:47;15.10;;;10.23;;
37389;SDS011;39679;49.000;8.390;2022-10-29T20:26:48;15.07;;;9.20;;
37389;SDS011;39679;49.000;8.390;2022-10-29T20:31:48;14.65;;;9.93;;
37389;SDS011;39679;49.000;8.390;2022-10-29T20:36:48;15.45;;;9.77;;
37389;SDS011;39679;49.000;8.390;2022-10-29T20:41:49;25.05;;;16.35;;
37389;SDS011;39679;49.000;8.390;2022-10-29T20:46:49;18.23;;;12.05;;
37389;SDS011;39679;49.000;8.390;2022-10-29T20:51:50;15.05;;;10.90;;
37389;SDS011;39679;49.000;8.390;2022-10-29T20:56:50;15.33;;;10.90;;
37389;SDS011;39679;49.000;8.390;2022-10-29T21:01:52;17.17;;;10.68;;
37389;SDS011;39679;49.000;8.390;2022-10-29T21:06:52;16.13;;;10.23;;
37389;SDS011;39679;49.000;8.390;2022-10-29T21:11:52;14.87;;;10.40;;
37389;SDS011;39679;49.000;8.390;2022-10-29T21:16:52;17.03;;;11.27;;
37389;SDS011;39679;49.000;8.390;2022-10-29T21:21:53;15.10;;;9.90;;
37389;SDS011;39679;49.000;8.390;2022-10-29T21:26:53;16.33;;;9.97;;
37389;SDS011;39679;49.000;8.390;2022-10-29T21:31:53;17.40;;;10.33;;
37389;SDS011;39679;49.000;8.390;2022-10-29T21:36:54;16.03;;;9.47;;
37389;SDS011;39679;49.000;8.390;2022-10-29T21:41:54;16.43;;;9.40;;
37389;SDS011;39679;49.000;8.390;2022-10-29T21:46:55;15.55;;;10.23;;
37389;SDS011;39679;49.000;8.390;2022-10-29T21:51:55;15.33;;;10.27;;
37389;SDS011;39679;49.000;8.390;2022-10-29T21:56:55;18.27;;;9.80;;
37389;SDS011;39679;49.000;8.390;2022-10-29T22:01:56;16.63;;;10.37;;
37389;SDS011;39679;49.000;8.390;2022-10-29T22:06:56;16.10;;;10.10;;
37389;SDS011;39679;49.000;8.390;2022-10-29T22:11:56;14.60;;;9.40;;
37389;SDS011;39679;49.000;8.390;2022-10-29T22:16:57;15.37;;;9.60;;
37389;SDS011;39679;49.000;8.390;2022-10-29T22:21:57;17.30;;;10.13;;
37389;SDS011;39679;49.000;8.390;2022-10-29T22:26:57;13.27;;;8.87;;
37389;SDS011;39679;49.000;8.390;2022-10-29T22:31:58;13.38;;;8.82;;
37389;SDS011;39679;49.000;8.390;2022-10-29T22:36:58;12.57;;;8.85;;
37389;SDS011;39679;49.000;8.390;2022-10-29T22:41:59;14.93;;;8.93;;
37389;SDS011;39679;49.000;8.390;2022-10-29T22:46:59;13.57;;;8.80;;
37389;SDS011;39679;49.000;8.390;2022-10-29T22:51:59;11.90;;;8.40;;
37389;SDS011;39679;49.000;8.390;2022-10-29T22:56:59;13.68;;;8.63;;
37389;SDS011;39679;49.000;8.390;2022-10-29T23:02:00;14.10;;;8.15;;
37389;SDS011;39679;49.000;8.390;2022-10-29T23:07:07;11.95;;;7.55;;
37389;SDS011;39679;49.000;8.390;2022-10-29T23:12:07;11.63;;;8.23;;
37389;SDS011;39679;49.000;8.390;2022-10-29T23:17:07;15.40;;;7.93;;
37389;SDS011;39679;49.000;8.390;2022-10-29T23:22:08;13.45;;;7.75;;
37389;SDS011;39679;49.000;8.390;2022-10-29T23:27:08;13.35;;;7.25;;
37389;SDS011;39679;49.000;8.390;2022-10-29T23:32:08;11.77;;;7.45;;
37389;SDS011;39679;49.000;8.390;2022-10-29T23:37:09;12.00;;;7.70;;
37389;SDS011;39679;49.000;8.390;2022-10-29T23:42:09;12.60;;;7.57;;
37389;SDS011;39679;49.000;8.390;2022-10-29T23:47:10;13.05;;;7.40;;
37389;SDS011;39679;49.000;8.390;2022-10-29T23:52:10;13.23;;;7.10;;
37389;SDS011;39679;49.000;8.390;2022-10-29T23:57:10;16.02;;;8.27;;
